sensor_id;sensor_type;location;lat;lon;timestamp;temperature;humidity
10384;DHT22;5238;43.508;4.980;2022-10-15T00:01:23;18.60;91.30
10384;DHT22;5238;43.508;4.980;2022-10-15T00:03:50;18.50;91.30
10384;DHT22;5238;43.508;4.980;2022-10-15T00:06:21;18.50;91.30
10384;DHT22;5238;43.508;4.980;2022-10-15T00:08:48;18.50;91.30
10384;DHT22;5238;43.508;4.980;2022-10-15T00:11:22;18.50;91.30
10384;DHT22;5238;43.508;4.980;2022-10-15T00:13:58;18.40;91.30
10384;DHT22;5238;43.508;4.980;2022-10-15T00:16:27;18.40;91.30
10384;DHT22;5238;43.508;4.980;2022-10-15T00:18:54;18.40;91.30
10384;DHT22;5238;43.508;4.980;2022-10-15T00:21:23;18.40;91.30
10384;DHT22;5238;43.508;4.980;2022-10-15T00:23:50;18.30;91.30
10384;DHT22;5238;43.508;4.980;2022-10-15T00:26:19;18.30;91.30
10384;DHT22;5238;43.508;4.980;2022-10-15T00:28:49;18.30;91.30
10384;DHT22;5238;43.508;4.980;2022-10-15T00:31:18;18.30;91.30
10384;DHT22;5238;43.508;4.980;2022-10-15T00:33:48;18.30;91.30
10384;DHT22;5238;43.508;4.980;2022-10-15T00:36:17;18.30;91.30
10384;DHT22;5238;43.508;4.980;2022-10-15T00:38:47;18.30;91.30
10384;DHT22;5238;43.508;4.980;2022-10-15T00:41:16;18.20;91.30
10384;DHT22;5238;43.508;4.980;2022-10-15T00:43:46;18.20;91.30
10384;DHT22;5238;43.508;4.980;2022-10-15T00:46:19;18.20;91.30
10384;DHT22;5238;43.508;4.980;2022-10-15T00:48:50;18.10;91.30
10384;DHT22;5238;43.508;4.980;2022-10-15T00:51:19;18.10;91.30
10384;DHT22;5238;43.508;4.980;2022-10-15T00:53:48;18.10;91.30
10384;DHT22;5238;43.508;4.980;2022-10-15T00:56:17;18.10;91.30
10384;DHT22;5238;43.508;4.980;2022-10-15T00:58:45;18.00;91.30
10384;DHT22;5238;43.508;4.980;2022-10-15T01:01:12;18.00;91.30
10384;DHT22;5238;43.508;4.980;2022-10-15T01:03:45;18.00;91.30
10384;DHT22;5238;43.508;4.980;2022-10-15T01:06:12;18.00;91.30
10384;DHT22;5238;43.508;4.980;2022-10-15T01:08:43;17.90;91.30
10384;DHT22;5238;43.508;4.980;2022-10-15T01:11:26;17.90;91.30
10384;DHT22;5238;43.508;4.980;2022-10-15T01:14:01;17.90;91.30
10384;DHT22;5238;43.508;4.980;2022-10-15T01:16:39;17.90;91.30
10384;DHT22;5238;43.508;4.980;2022-10-15T01:19:24;17.90;91.30
10384;DHT22;5238;43.508;4.980;2022-10-15T01:22:01;17.80;91.30
10384;DHT22;5238;43.508;4.980;2022-10-15T01:24:56;17.80;91.30
10384;DHT22;5238;43.508;4.980;2022-10-15T01:27:32;17.80;91.30
10384;DHT22;5238;43.508;4.980;2022-10-15T01:30:21;17.80;91.30
10384;DHT22;5238;43.508;4.980;2022-10-15T01:36:16;17.70;91.30
10384;DHT22;5238;43.508;4.980;2022-10-15T01:38:53;17.70;91.30
10384;DHT22;5238;43.508;4.980;2022-10-15T01:41:26;17.70;91.30
10384;DHT22;5238;43.508;4.980;2022-10-15T01:43:59;17.70;91.30
10384;DHT22;5238;43.508;4.980;2022-10-15T01:46:31;17.70;91.30
10384;DHT22;5238;43.508;4.980;2022-10-15T01:49:08;17.70;91.30
10384;DHT22;5238;43.508;4.980;2022-10-15T01:51:42;17.70;91.30
10384;DHT22;5238;43.508;4.980;2022-10-15T01:54:12;17.60;91.30
10384;DHT22;5238;43.508;4.980;2022-10-15T01:56:44;17.60;91.30
10384;DHT22;5238;43.508;4.980;2022-10-15T01:59:16;17.60;91.30
10384;DHT22;5238;43.508;4.980;2022-10-15T02:01:45;17.60;91.30
10384;DHT22;5238;43.508;4.980;2022-10-15T02:04:22;17.60;91.30
10384;DHT22;5238;43.508;4.980;2022-10-15T02:06:53;17.60;91.30
10384;DHT22;5238;43.508;4.980;2022-10-15T02:09:28;17.50;91.30
10384;DHT22;5238;43.508;4.980;2022-10-15T02:12:08;17.50;91.30
10384;DHT22;5238;43.508;4.980;2022-10-15T02:14:43;17.50;91.30
10384;DHT22;5238;43.508;4.980;2022-10-15T02:17:16;17.50;91.30
10384;DHT22;5238;43.508;4.980;2022-10-15T02:19:50;17.40;91.30
10384;DHT22;5238;43.508;4.980;2022-10-15T02:22:21;17.40;91.30
10384;DHT22;5238;43.508;4.980;2022-10-15T02:24:55;17.40;91.30
10384;DHT22;5238;43.508;4.980;2022-10-15T02:27:29;17.40;91.30
10384;DHT22;5238;43.508;4.980;2022-10-15T02:29:59;17.40;91.30
10384;DHT22;5238;43.508;4.980;2022-10-15T02:32:33;17.30;91.30
10384;DHT22;5238;43.508;4.980;2022-10-15T02:35:06;17.30;91.30
10384;DHT22;5238;43.508;4.980;2022-10-15T02:37:34;17.30;91.30
10384;DHT22;5238;43.508;4.980;2022-10-15T02:40:04;17.20;91.30
10384;DHT22;5238;43.508;4.980;2022-10-15T02:42:33;17.20;91.30
10384;DHT22;5238;43.508;4.980;2022-10-15T02:45:00;17.20;91.30
10384;DHT22;5238;43.508;4.980;2022-10-15T02:47:29;17.20;91.30
10384;DHT22;5238;43.508;4.980;2022-10-15T02:49:59;17.20;91.30
10384;DHT22;5238;43.508;4.980;2022-10-15T02:52:25;17.10;91.30
10384;DHT22;5238;43.508;4.980;2022-10-15T02:54:52;17.10;91.30
10384;DHT22;5238;43.508;4.980;2022-10-15T02:57:22;17.10;91.30
10384;DHT22;5238;43.508;4.980;2022-10-15T02:59:49;17.10;91.30
10384;DHT22;5238;43.508;4.980;2022-10-15T03:02:18;17.00;91.30
10384;DHT22;5238;43.508;4.980;2022-10-15T03:04:47;17.00;91.30
10384;DHT22;5238;43.508;4.980;2022-10-15T03:11:02;17.00;91.30
10384;DHT22;5238;43.508;4.980;2022-10-15T03:13:34;16.90;91.30
10384;DHT22;5238;43.508;4.980;2022-10-15T03:16:03;16.90;91.30
10384;DHT22;5238;43.508;4.980;2022-10-15T03:18:31;16.90;91.30
10384;DHT22;5238;43.508;4.980;2022-10-15T03:24:21;16.90;91.30
10384;DHT22;5238;43.508;4.980;2022-10-15T03:26:48;16.80;91.30
10384;DHT22;5238;43.508;4.980;2022-10-15T03:29:15;16.80;91.30
10384;DHT22;5238;43.508;4.980;2022-10-15T03:31:42;16.80;91.30
10384;DHT22;5238;43.508;4.980;2022-10-15T03:34:09;16.80;91.30
10384;DHT22;5238;43.508;4.980;2022-10-15T03:36:36;16.80;91.30
10384;DHT22;5238;43.508;4.980;2022-10-15T03:39:04;16.80;91.30
10384;DHT22;5238;43.508;4.980;2022-10-15T03:41:34;16.70;91.30
10384;DHT22;5238;43.508;4.980;2022-10-15T03:44:01;16.80;91.30
10384;DHT22;5238;43.508;4.980;2022-10-15T03:46:31;16.70;91.30
10384;DHT22;5238;43.508;4.980;2022-10-15T03:49:00;16.80;91.30
10384;DHT22;5238;43.508;4.980;2022-10-15T03:51:27;16.70;91.30
10384;DHT22;5238;43.508;4.980;2022-10-15T03:54:23;16.70;91.30
10384;DHT22;5238;43.508;4.980;2022-10-15T03:56:56;16.70;91.30
10384;DHT22;5238;43.508;4.980;2022-10-15T03:59:23;16.70;91.30
10384;DHT22;5238;43.508;4.980;2022-10-15T04:01:50;16.70;91.30
10384;DHT22;5238;43.508;4.980;2022-10-15T04:04:17;16.60;91.30
10384;DHT22;5238;43.508;4.980;2022-10-15T04:06:47;16.60;91.30
10384;DHT22;5238;43.508;4.980;2022-10-15T04:09:19;16.60;91.30
10384;DHT22;5238;43.508;4.980;2022-10-15T04:11:46;16.60;91.30
10384;DHT22;5238;43.508;4.980;2022-10-15T04:14:15;16.60;91.30
10384;DHT22;5238;43.508;4.980;2022-10-15T04:16:42;16.60;91.30
10384;DHT22;5238;43.508;4.980;2022-10-15T04:19:12;16.60;91.30
10384;DHT22;5238;43.508;4.980;2022-10-15T04:21:42;16.60;91.30
10384;DHT22;5238;43.508;4.980;2022-10-15T04:24:09;16.60;91.30
10384;DHT22;5238;43.508;4.980;2022-10-15T04:26:36;16.50;91.30
10384;DHT22;5238;43.508;4.980;2022-10-15T04:29:05;16.50;91.30
10384;DHT22;5238;43.508;4.980;2022-10-15T04:31:33;16.50;91.30
10384;DHT22;5238;43.508;4.980;2022-10-15T04:34:02;16.50;91.30
10384;DHT22;5238;43.508;4.980;2022-10-15T04:36:31;16.50;91.30
10384;DHT22;5238;43.508;4.980;2022-10-15T04:39:01;16.50;91.30
10384;DHT22;5238;43.508;4.980;2022-10-15T04:41:30;16.50;91.30
10384;DHT22;5238;43.508;4.980;2022-10-15T04:44:02;16.50;91.30
10384;DHT22;5238;43.508;4.980;2022-10-15T04:46:30;16.40;91.30
10384;DHT22;5238;43.508;4.980;2022-10-15T04:48:59;16.40;91.30
10384;DHT22;5238;43.508;4.980;2022-10-15T04:51:27;16.30;91.30
10384;DHT22;5238;43.508;4.980;2022-10-15T04:53:55;16.30;91.30
10384;DHT22;5238;43.508;4.980;2022-10-15T04:56:28;16.30;91.30
10384;DHT22;5238;43.508;4.980;2022-10-15T04:58:55;16.30;91.30
10384;DHT22;5238;43.508;4.980;2022-10-15T05:01:22;16.20;91.30
10384;DHT22;5238;43.508;4.980;2022-10-15T05:03:51;16.20;91.30
10384;DHT22;5238;43.508;4.980;2022-10-15T05:06:21;16.20;91.30
10384;DHT22;5238;43.508;4.980;2022-10-15T05:08:49;16.20;91.30
10384;DHT22;5238;43.508;4.980;2022-10-15T05:11:20;16.20;91.30
10384;DHT22;5238;43.508;4.980;2022-10-15T05:13:49;16.20;91.30
10384;DHT22;5238;43.508;4.980;2022-10-15T05:16:22;16.20;91.30
10384;DHT22;5238;43.508;4.980;2022-10-15T05:18:54;16.20;91.30
10384;DHT22;5238;43.508;4.980;2022-10-15T05:21:24;16.10;91.30
10384;DHT22;5238;43.508;4.980;2022-10-15T05:23:51;16.10;91.30
10384;DHT22;5238;43.508;4.980;2022-10-15T05:26:22;16.10;91.30
10384;DHT22;5238;43.508;4.980;2022-10-15T05:28:52;16.10;91.30
10384;DHT22;5238;43.508;4.980;2022-10-15T05:31:21;16.10;91.30
10384;DHT22;5238;43.508;4.980;2022-10-15T05:33:50;16.10;91.30
10384;DHT22;5238;43.508;4.980;2022-10-15T05:36:20;16.10;91.30
10384;DHT22;5238;43.508;4.980;2022-10-15T05:38:57;16.10;91.30
10384;DHT22;5238;43.508;4.980;2022-10-15T05:41:25;16.10;91.30
10384;DHT22;5238;43.508;4.980;2022-10-15T05:43:54;16.10;91.30
10384;DHT22;5238;43.508;4.980;2022-10-15T05:46:24;16.10;91.30
10384;DHT22;5238;43.508;4.980;2022-10-15T05:48:54;16.10;91.30
10384;DHT22;5238;43.508;4.980;2022-10-15T05:51:23;16.00;91.30
10384;DHT22;5238;43.508;4.980;2022-10-15T05:53:56;16.10;91.30
10384;DHT22;5238;43.508;4.980;2022-10-15T05:56:25;16.10;91.30
10384;DHT22;5238;43.508;4.980;2022-10-15T05:58:53;16.10;91.30
10384;DHT22;5238;43.508;4.980;2022-10-15T06:01:20;16.00;91.30
10384;DHT22;5238;43.508;4.980;2022-10-15T06:03:47;16.00;91.30
10384;DHT22;5238;43.508;4.980;2022-10-15T06:06:18;16.00;91.30
10384;DHT22;5238;43.508;4.980;2022-10-15T06:08:50;16.00;91.30
10384;DHT22;5238;43.508;4.980;2022-10-15T06:11:22;16.00;91.30
10384;DHT22;5238;43.508;4.980;2022-10-15T06:13:49;16.00;91.30
10384;DHT22;5238;43.508;4.980;2022-10-15T06:16:16;16.10;91.30
10384;DHT22;5238;43.508;4.980;2022-10-15T06:18:44;16.10;91.30
10384;DHT22;5238;43.508;4.980;2022-10-15T06:21:11;16.10;91.30
10384;DHT22;5238;43.508;4.980;2022-10-15T06:23:40;16.20;91.30
10384;DHT22;5238;43.508;4.980;2022-10-15T06:26:09;16.30;91.30
10384;DHT22;5238;43.508;4.980;2022-10-15T06:28:38;16.50;91.30
10384;DHT22;5238;43.508;4.980;2022-10-15T06:31:05;16.70;91.30
10384;DHT22;5238;43.508;4.980;2022-10-15T06:33:33;17.00;91.30
10384;DHT22;5238;43.508;4.980;2022-10-15T06:36:05;17.20;91.30
10384;DHT22;5238;43.508;4.980;2022-10-15T06:38:33;17.50;91.30
10384;DHT22;5238;43.508;4.980;2022-10-15T06:41:02;17.80;91.30
10384;DHT22;5238;43.508;4.980;2022-10-15T06:43:29;18.00;91.30
10384;DHT22;5238;43.508;4.980;2022-10-15T06:45:58;18.30;91.30
10384;DHT22;5238;43.508;4.980;2022-10-15T06:48:27;18.60;91.30
10384;DHT22;5238;43.508;4.980;2022-10-15T06:50:56;18.80;91.30
10384;DHT22;5238;43.508;4.980;2022-10-15T06:53:26;19.10;91.30
10384;DHT22;5238;43.508;4.980;2022-10-15T06:55:58;19.40;91.30
10384;DHT22;5238;43.508;4.980;2022-10-15T06:58:29;19.70;91.30
10384;DHT22;5238;43.508;4.980;2022-10-15T07:01:06;19.80;91.30
10384;DHT22;5238;43.508;4.980;2022-10-15T07:03:34;20.10;91.30
10384;DHT22;5238;43.508;4.980;2022-10-15T07:06:05;20.30;91.30
10384;DHT22;5238;43.508;4.980;2022-10-15T07:08:35;20.60;91.30
10384;DHT22;5238;43.508;4.980;2022-10-15T07:11:06;20.90;91.30
10384;DHT22;5238;43.508;4.980;2022-10-15T07:13:34;21.20;91.30
10384;DHT22;5238;43.508;4.980;2022-10-15T07:16:04;21.50;91.30
10384;DHT22;5238;43.508;4.980;2022-10-15T07:18:36;21.80;91.30
10384;DHT22;5238;43.508;4.980;2022-10-15T07:24:53;22.40;91.30
10384;DHT22;5238;43.508;4.980;2022-10-15T07:27:32;22.80;91.30
10384;DHT22;5238;43.508;4.980;2022-10-15T07:30:36;23.00;91.30
10384;DHT22;5238;43.508;4.980;2022-10-15T07:33:07;23.30;91.30
10384;DHT22;5238;43.508;4.980;2022-10-15T07:35:52;23.40;91.30
10384;DHT22;5238;43.508;4.980;2022-10-15T07:45:10;23.90;91.30
10384;DHT22;5238;43.508;4.980;2022-10-15T07:47:40;24.10;91.30
10384;DHT22;5238;43.508;4.980;2022-10-15T08:10:51;25.60;91.30
10384;DHT22;5238;43.508;4.980;2022-10-15T08:26:48;26.60;91.30
10384;DHT22;5238;43.508;4.980;2022-10-15T08:53:37;28.40;91.30
10384;DHT22;5238;43.508;4.980;2022-10-15T08:56:26;28.60;91.30
10384;DHT22;5238;43.508;4.980;2022-10-15T09:06:43;28.70;91.30
10384;DHT22;5238;43.508;4.980;2022-10-15T09:09:18;28.80;91.30
10384;DHT22;5238;43.508;4.980;2022-10-15T09:12:34;28.80;91.30
10384;DHT22;5238;43.508;4.980;2022-10-15T09:15:11;28.90;91.30
10384;DHT22;5238;43.508;4.980;2022-10-15T09:17:42;29.00;91.30
10384;DHT22;5238;43.508;4.980;2022-10-15T09:24:08;29.20;91.30
10384;DHT22;5238;43.508;4.980;2022-10-15T09:26:59;29.40;91.30
10384;DHT22;5238;43.508;4.980;2022-10-15T09:30:23;29.60;91.30
10384;DHT22;5238;43.508;4.980;2022-10-15T09:33:17;29.80;91.30
10384;DHT22;5238;43.508;4.980;2022-10-15T09:36:29;30.00;91.30
10384;DHT22;5238;43.508;4.980;2022-10-15T09:39:17;30.00;91.30
10384;DHT22;5238;43.508;4.980;2022-10-15T09:41:55;30.20;91.30
10384;DHT22;5238;43.508;4.980;2022-10-15T09:44:33;30.40;91.30
10384;DHT22;5238;43.508;4.980;2022-10-15T09:47:15;30.50;91.30
10384;DHT22;5238;43.508;4.980;2022-10-15T09:50:18;30.60;91.30
10384;DHT22;5238;43.508;4.980;2022-10-15T09:53:13;30.60;91.30
10384;DHT22;5238;43.508;4.980;2022-10-15T09:55:56;30.60;91.30
10384;DHT22;5238;43.508;4.980;2022-10-15T09:58:56;30.70;91.30
10384;DHT22;5238;43.508;4.980;2022-10-15T10:01:55;30.80;91.30
10384;DHT22;5238;43.508;4.980;2022-10-15T10:08:36;31.00;91.30
10384;DHT22;5238;43.508;4.980;2022-10-15T10:11:23;31.10;91.30
10384;DHT22;5238;43.508;4.980;2022-10-15T10:14:28;31.20;91.30
10384;DHT22;5238;43.508;4.980;2022-10-15T10:17:31;31.30;91.30
10384;DHT22;5238;43.508;4.980;2022-10-15T10:20:17;31.40;91.30
10384;DHT22;5238;43.508;4.980;2022-10-15T10:23:31;31.50;91.30
10384;DHT22;5238;43.508;4.980;2022-10-15T10:26:24;31.60;91.30
10384;DHT22;5238;43.508;4.980;2022-10-15T10:28:56;31.70;91.30
10384;DHT22;5238;43.508;4.980;2022-10-15T10:31:28;31.90;91.30
10384;DHT22;5238;43.508;4.980;2022-10-15T10:34:25;32.00;91.30
10384;DHT22;5238;43.508;4.980;2022-10-15T10:37:03;32.00;91.30
10384;DHT22;5238;43.508;4.980;2022-10-15T10:43:10;31.90;91.30
10384;DHT22;5238;43.508;4.980;2022-10-15T10:45:57;31.90;91.30
10384;DHT22;5238;43.508;4.980;2022-10-15T10:48:27;31.90;91.30
10384;DHT22;5238;43.508;4.980;2022-10-15T10:51:04;32.00;91.30
10384;DHT22;5238;43.508;4.980;2022-10-15T10:53:37;31.90;91.30
10384;DHT22;5238;43.508;4.980;2022-10-15T10:56:10;32.00;91.30
10384;DHT22;5238;43.508;4.980;2022-10-15T10:58:43;31.90;91.30
10384;DHT22;5238;43.508;4.980;2022-10-15T11:01:16;31.80;91.30
10384;DHT22;5238;43.508;4.980;2022-10-15T11:03:44;31.50;91.30
10384;DHT22;5238;43.508;4.980;2022-10-15T11:06:32;31.30;91.30
10384;DHT22;5238;43.508;4.980;2022-10-15T11:12:28;30.80;91.30
10384;DHT22;5238;43.508;4.980;2022-10-15T11:15:02;30.70;91.30
10384;DHT22;5238;43.508;4.980;2022-10-15T11:17:44;30.50;91.30
10384;DHT22;5238;43.508;4.980;2022-10-15T11:20:21;30.40;91.30
10384;DHT22;5238;43.508;4.980;2022-10-15T11:23:05;30.20;91.30
10384;DHT22;5238;43.508;4.980;2022-10-15T11:25:54;30.00;91.30
10384;DHT22;5238;43.508;4.980;2022-10-15T11:28:46;29.90;91.30
10384;DHT22;5238;43.508;4.980;2022-10-15T11:31:28;29.70;91.30
10384;DHT22;5238;43.508;4.980;2022-10-15T11:34:08;29.60;91.30
10384;DHT22;5238;43.508;4.980;2022-10-15T11:36:49;29.40;91.30
10384;DHT22;5238;43.508;4.980;2022-10-15T11:39:32;29.20;91.30
10384;DHT22;5238;43.508;4.980;2022-10-15T11:42:08;29.10;91.30
10384;DHT22;5238;43.508;4.980;2022-10-15T11:45:08;29.00;91.30
10384;DHT22;5238;43.508;4.980;2022-10-15T11:47:52;28.90;91.30
10384;DHT22;5238;43.508;4.980;2022-10-15T11:50:26;28.80;91.30
10384;DHT22;5238;43.508;4.980;2022-10-15T11:56:18;28.70;91.30
10384;DHT22;5238;43.508;4.980;2022-10-15T11:58:56;28.60;91.30
10384;DHT22;5238;43.508;4.980;2022-10-15T12:01:29;28.40;91.30
10384;DHT22;5238;43.508;4.980;2022-10-15T12:04:03;28.30;91.30
10384;DHT22;5238;43.508;4.980;2022-10-15T12:06:39;28.30;91.30
10384;DHT22;5238;43.508;4.980;2022-10-15T12:09:11;28.20;91.30
10384;DHT22;5238;43.508;4.980;2022-10-15T12:12:16;28.10;91.30
10384;DHT22;5238;43.508;4.980;2022-10-15T12:18:09;28.00;91.30
10384;DHT22;5238;43.508;4.980;2022-10-15T12:20:44;27.90;91.30
10384;DHT22;5238;43.508;4.980;2022-10-15T12:23:25;27.90;91.30
10384;DHT22;5238;43.508;4.980;2022-10-15T12:26:33;27.80;91.30
10384;DHT22;5238;43.508;4.980;2022-10-15T12:29:23;27.70;91.30
10384;DHT22;5238;43.508;4.980;2022-10-15T12:32:30;27.70;91.30
10384;DHT22;5238;43.508;4.980;2022-10-15T12:35:42;27.70;91.30
10384;DHT22;5238;43.508;4.980;2022-10-15T12:45:19;27.60;91.30
10384;DHT22;5238;43.508;4.980;2022-10-15T12:48:30;27.60;91.30
10384;DHT22;5238;43.508;4.980;2022-10-15T13:07:38;27.20;91.30
10384;DHT22;5238;43.508;4.980;2022-10-15T13:10:18;27.20;91.30
10384;DHT22;5238;43.508;4.980;2022-10-15T13:12:52;27.10;91.30
10384;DHT22;5238;43.508;4.980;2022-10-15T13:15:26;27.10;91.30
10384;DHT22;5238;43.508;4.980;2022-10-15T13:17:54;27.00;91.30
10384;DHT22;5238;43.508;4.980;2022-10-15T13:20:30;27.00;91.30
10384;DHT22;5238;43.508;4.980;2022-10-15T13:23:21;26.90;91.30
10384;DHT22;5238;43.508;4.980;2022-10-15T13:25:50;26.90;91.30
10384;DHT22;5238;43.508;4.980;2022-10-15T13:28:38;26.90;91.30
10384;DHT22;5238;43.508;4.980;2022-10-15T13:31:11;26.90;91.30
10384;DHT22;5238;43.508;4.980;2022-10-15T13:33:49;26.90;91.30
10384;DHT22;5238;43.508;4.980;2022-10-15T13:36:33;26.90;91.30
10384;DHT22;5238;43.508;4.980;2022-10-15T13:39:27;26.90;91.30
10384;DHT22;5238;43.508;4.980;2022-10-15T13:42:13;26.90;91.30
10384;DHT22;5238;43.508;4.980;2022-10-15T13:47:40;26.90;91.30
10384;DHT22;5238;43.508;4.980;2022-10-15T13:50:26;26.80;91.30
10384;DHT22;5238;43.508;4.980;2022-10-15T13:53:11;26.80;91.30
10384;DHT22;5238;43.508;4.980;2022-10-15T13:55:52;26.80;91.30
10384;DHT22;5238;43.508;4.980;2022-10-15T13:58:35;26.70;91.30
10384;DHT22;5238;43.508;4.980;2022-10-15T14:01:12;26.70;91.30
10384;DHT22;5238;43.508;4.980;2022-10-15T14:03:47;26.60;91.30
10384;DHT22;5238;43.508;4.980;2022-10-15T14:06:19;26.60;91.30
10384;DHT22;5238;43.508;4.980;2022-10-15T14:08:56;26.50;91.30
10384;DHT22;5238;43.508;4.980;2022-10-15T14:11:29;26.50;91.30
10384;DHT22;5238;43.508;4.980;2022-10-15T14:14:00;26.40;91.30
10384;DHT22;5238;43.508;4.980;2022-10-15T14:16:45;26.40;91.30
10384;DHT22;5238;43.508;4.980;2022-10-15T14:19:21;26.40;91.30
10384;DHT22;5238;43.508;4.980;2022-10-15T14:21:51;26.40;91.30
10384;DHT22;5238;43.508;4.980;2022-10-15T14:24:21;26.40;91.30
10384;DHT22;5238;43.508;4.980;2022-10-15T14:26:51;26.30;91.30
10384;DHT22;5238;43.508;4.980;2022-10-15T14:29:25;26.30;91.30
10384;DHT22;5238;43.508;4.980;2022-10-15T14:32:02;26.30;91.30
10384;DHT22;5238;43.508;4.980;2022-10-15T14:34:45;26.20;91.30
10384;DHT22;5238;43.508;4.980;2022-10-15T14:37:57;26.20;91.30
10384;DHT22;5238;43.508;4.980;2022-10-15T14:40:33;26.10;91.30
10384;DHT22;5238;43.508;4.980;2022-10-15T14:43:13;26.00;91.30
10384;DHT22;5238;43.508;4.980;2022-10-15T14:45:55;26.00;91.30
10384;DHT22;5238;43.508;4.980;2022-10-15T14:48:30;25.90;91.30
10384;DHT22;5238;43.508;4.980;2022-10-15T14:51:03;25.90;91.30
10384;DHT22;5238;43.508;4.980;2022-10-15T14:53:49;25.90;91.30
10384;DHT22;5238;43.508;4.980;2022-10-15T14:56:20;25.80;91.30
10384;DHT22;5238;43.508;4.980;2022-10-15T14:58:54;25.80;91.30
10384;DHT22;5238;43.508;4.980;2022-10-15T15:01:23;25.80;91.30
10384;DHT22;5238;43.508;4.980;2022-10-15T15:03:59;25.70;91.30
10384;DHT22;5238;43.508;4.980;2022-10-15T15:06:34;25.70;91.30
10384;DHT22;5238;43.508;4.980;2022-10-15T15:09:02;25.60;91.30
10384;DHT22;5238;43.508;4.980;2022-10-15T15:11:32;25.60;91.30
10384;DHT22;5238;43.508;4.980;2022-10-15T15:14:21;25.60;91.30
10384;DHT22;5238;43.508;4.980;2022-10-15T15:16:50;25.50;91.30
10384;DHT22;5238;43.508;4.980;2022-10-15T15:19:20;25.50;91.30
10384;DHT22;5238;43.508;4.980;2022-10-15T15:21:47;25.50;91.30
10384;DHT22;5238;43.508;4.980;2022-10-15T15:24:31;25.40;91.30
10384;DHT22;5238;43.508;4.980;2022-10-15T15:26:58;25.40;91.30
10384;DHT22;5238;43.508;4.980;2022-10-15T15:29:32;25.30;91.30
10384;DHT22;5238;43.508;4.980;2022-10-15T15:32:03;25.30;91.30
10384;DHT22;5238;43.508;4.980;2022-10-15T15:34:31;25.10;91.30
10384;DHT22;5238;43.508;4.980;2022-10-15T15:37:01;25.10;91.30
10384;DHT22;5238;43.508;4.980;2022-10-15T15:39:29;25.00;91.30
10384;DHT22;5238;43.508;4.980;2022-10-15T15:42:03;25.00;91.30
10384;DHT22;5238;43.508;4.980;2022-10-15T15:44:33;25.00;91.30
10384;DHT22;5238;43.508;4.980;2022-10-15T15:47:04;24.90;91.30
10384;DHT22;5238;43.508;4.980;2022-10-15T15:49:34;24.90;91.30
10384;DHT22;5238;43.508;4.980;2022-10-15T15:52:02;24.80;91.30
10384;DHT22;5238;43.508;4.980;2022-10-15T15:54:31;24.70;91.30
10384;DHT22;5238;43.508;4.980;2022-10-15T15:57:00;24.70;91.30
10384;DHT22;5238;43.508;4.980;2022-10-15T15:59:35;24.60;91.30
10384;DHT22;5238;43.508;4.980;2022-10-15T16:02:11;24.60;91.30
10384;DHT22;5238;43.508;4.980;2022-10-15T16:04:43;24.50;91.30
10384;DHT22;5238;43.508;4.980;2022-10-15T16:07:14;24.50;91.30
10384;DHT22;5238;43.508;4.980;2022-10-15T16:09:42;24.40;91.30
10384;DHT22;5238;43.508;4.980;2022-10-15T16:12:14;24.40;91.30
10384;DHT22;5238;43.508;4.980;2022-10-15T16:14:44;24.30;91.30
10384;DHT22;5238;43.508;4.980;2022-10-15T16:17:12;24.30;91.30
10384;DHT22;5238;43.508;4.980;2022-10-15T16:19:39;24.20;91.30
10384;DHT22;5238;43.508;4.980;2022-10-15T16:22:22;24.20;91.30
10384;DHT22;5238;43.508;4.980;2022-10-15T16:24:53;24.10;91.30
10384;DHT22;5238;43.508;4.980;2022-10-15T16:27:25;24.10;91.30
10384;DHT22;5238;43.508;4.980;2022-10-15T16:29:58;24.10;91.30
10384;DHT22;5238;43.508;4.980;2022-10-15T16:32:26;24.00;91.30
10384;DHT22;5238;43.508;4.980;2022-10-15T16:34:55;24.00;91.30
10384;DHT22;5238;43.508;4.980;2022-10-15T16:37:24;23.90;91.30
10384;DHT22;5238;43.508;4.980;2022-10-15T16:39:51;23.90;91.30
10384;DHT22;5238;43.508;4.980;2022-10-15T16:42:20;23.80;91.30
10384;DHT22;5238;43.508;4.980;2022-10-15T16:44:52;23.80;91.30
10384;DHT22;5238;43.508;4.980;2022-10-15T16:47:25;23.70;91.30
10384;DHT22;5238;43.508;4.980;2022-10-15T16:50:04;23.70;91.30
10384;DHT22;5238;43.508;4.980;2022-10-15T16:52:32;23.60;91.30
10384;DHT22;5238;43.508;4.980;2022-10-15T16:55:05;23.60;91.30
10384;DHT22;5238;43.508;4.980;2022-10-15T16:57:40;23.50;91.30
10384;DHT22;5238;43.508;4.980;2022-10-15T17:00:12;23.50;91.30
10384;DHT22;5238;43.508;4.980;2022-10-15T17:02:41;23.40;91.30
10384;DHT22;5238;43.508;4.980;2022-10-15T17:05:10;23.40;91.30
10384;DHT22;5238;43.508;4.980;2022-10-15T17:07:38;23.40;91.30
10384;DHT22;5238;43.508;4.980;2022-10-15T17:10:08;23.30;91.30
10384;DHT22;5238;43.508;4.980;2022-10-15T17:12:38;23.30;91.30
10384;DHT22;5238;43.508;4.980;2022-10-15T17:15:19;23.30;91.30
10384;DHT22;5238;43.508;4.980;2022-10-15T17:17:54;23.20;91.30
10384;DHT22;5238;43.508;4.980;2022-10-15T17:20:24;23.20;91.30
10384;DHT22;5238;43.508;4.980;2022-10-15T17:22:53;23.10;91.30
10384;DHT22;5238;43.508;4.980;2022-10-15T17:25:28;23.10;91.30
10384;DHT22;5238;43.508;4.980;2022-10-15T17:27:58;23.00;91.30
10384;DHT22;5238;43.508;4.980;2022-10-15T17:30:48;23.00;91.30
10384;DHT22;5238;43.508;4.980;2022-10-15T17:33:20;22.90;91.30
10384;DHT22;5238;43.508;4.980;2022-10-15T17:35:50;22.90;91.30
10384;DHT22;5238;43.508;4.980;2022-10-15T17:38:26;22.80;91.30
10384;DHT22;5238;43.508;4.980;2022-10-15T17:41:04;22.70;91.30
10384;DHT22;5238;43.508;4.980;2022-10-15T17:43:36;22.70;91.30
10384;DHT22;5238;43.508;4.980;2022-10-15T17:46:07;22.70;91.30
10384;DHT22;5238;43.508;4.980;2022-10-15T17:48:40;22.60;91.30
10384;DHT22;5238;43.508;4.980;2022-10-15T17:51:19;22.60;91.30
10384;DHT22;5238;43.508;4.980;2022-10-15T17:53:52;22.50;91.30
10384;DHT22;5238;43.508;4.980;2022-10-15T17:56:21;22.50;91.30
10384;DHT22;5238;43.508;4.980;2022-10-15T17:58:58;22.50;91.30
10384;DHT22;5238;43.508;4.980;2022-10-15T18:04:31;22.40;91.30
10384;DHT22;5238;43.508;4.980;2022-10-15T18:07:06;22.40;91.30
10384;DHT22;5238;43.508;4.980;2022-10-15T18:09:35;22.40;91.30
10384;DHT22;5238;43.508;4.980;2022-10-15T18:12:05;22.30;91.30
10384;DHT22;5238;43.508;4.980;2022-10-15T18:14:37;22.30;91.30
10384;DHT22;5238;43.508;4.980;2022-10-15T18:17:08;22.30;91.30
10384;DHT22;5238;43.508;4.980;2022-10-15T18:19:44;22.20;91.30
10384;DHT22;5238;43.508;4.980;2022-10-15T18:22:14;22.20;91.30
10384;DHT22;5238;43.508;4.980;2022-10-15T18:24:53;22.10;91.30
10384;DHT22;5238;43.508;4.980;2022-10-15T18:30:29;22.00;91.30
10384;DHT22;5238;43.508;4.980;2022-10-15T18:32:58;22.00;91.30
10384;DHT22;5238;43.508;4.980;2022-10-15T18:35:38;22.00;91.30
10384;DHT22;5238;43.508;4.980;2022-10-15T18:38:06;22.00;91.30
10384;DHT22;5238;43.508;4.980;2022-10-15T18:40:36;21.90;91.30
10384;DHT22;5238;43.508;4.980;2022-10-15T18:43:19;21.90;91.30
10384;DHT22;5238;43.508;4.980;2022-10-15T18:45:47;21.90;91.30
10384;DHT22;5238;43.508;4.980;2022-10-15T18:48:17;21.90;91.30
10384;DHT22;5238;43.508;4.980;2022-10-15T18:50:57;21.80;91.30
10384;DHT22;5238;43.508;4.980;2022-10-15T18:53:27;21.80;91.30